Time;durP1;ratioP1;P1;durP2;ratioP2;P2;SDS_P1;SDS_P2;PMS_P1;PMS_P2;Temp;Humidity;BMP_temperature;BMP_pressure;BME280_temperature;BME280_humidity;BME280_pressure;Samples;Min_cycle;Max_cycle;Signal;HPM_P1;HPM_P2
2022/10/26 00:01:18;;;;;;;8.48;4.57;;;10.30;93.20;;;;;;5053463;28;20020;-39
2022/10/26 00:03:45;;;;;;;7.80;4.35;;;10.40;93.20;;;;;;5053653;28;20083;-39
2022/10/26 00:06:23;;;;;;;14.30;4.97;;;10.40;93.10;;;;;;5053337;28;20388;-39
2022/10/26 00:08:50;;;;;;;11.35;4.60;;;10.40;93.00;;;;;;5053629;28;20021;-39
2022/10/26 00:11:17;;;;;;;9.05;4.78;;;10.40;93.10;;;;;;5055068;28;20029;-38
2022/10/26 00:13:43;;;;;;;12.20;5.30;;;10.40;93.00;;;;;;5054324;28;20465;-38
2022/10/26 00:16:11;;;;;;;11.27;4.60;;;10.40;92.90;;;;;;5053043;28;20098;-38
2022/10/26 00:18:37;;;;;;;15.65;5.38;;;10.50;92.90;;;;;;5053006;28;20043;-38
2022/10/26 00:21:04;;;;;;;7.75;4.38;;;10.50;92.90;;;;;;5052948;28;20025;-40
2022/10/26 00:23:30;;;;;;;8.43;4.55;;;10.40;92.90;;;;;;5052912;28;20488;-38
2022/10/26 00:25:56;;;;;;;8.43;4.43;;;10.50;92.80;;;;;;5053162;28;20021;-37
2022/10/26 00:28:22;;;;;;;10.00;3.90;;;10.50;92.80;;;;;;5052880;28;20108;-38
2022/10/26 00:30:48;;;;;;;11.10;4.88;;;10.50;92.80;;;;;;5053242;28;20136;-39
2022/10/26 00:33:14;;;;;;;8.60;5.13;;;10.50;92.80;;;;;;5052670;28;20377;-37
2022/10/26 00:35:40;;;;;;;15.05;5.47;;;10.60;92.70;;;;;;5052921;28;20384;-38
2022/10/26 00:38:05;;;;;;;8.02;5.10;;;10.50;92.50;;;;;;5052760;28;20029;-37
2022/10/26 00:40:31;;;;;;;8.93;4.38;;;10.50;92.50;;;;;;5052747;28;20025;-37
2022/10/26 00:42:57;;;;;;;9.02;4.78;;;10.50;92.60;;;;;;5052733;28;20024;-42
2022/10/26 00:45:26;;;;;;;12.85;5.28;;;10.50;92.60;;;;;;5051342;28;20029;-38
2022/10/26 00:48:05;;;;;;;10.80;5.43;;;10.50;92.60;;;;;;5052722;28;20384;-37
2022/10/26 00:50:43;;;;;;;11.45;4.70;;;10.50;92.60;;;;;;5051516;28;20392;-38
2022/10/26 00:53:10;;;;;;;7.35;4.68;;;10.50;92.60;;;;;;5051460;28;20477;-37
2022/10/26 00:55:44;;;;;;;11.27;5.45;;;10.50;92.60;;;;;;5053584;28;20483;-37
2022/10/26 00:58:10;;;;;;;7.53;3.63;;;10.50;92.60;;;;;;5056769;28;20017;-38
2022/10/26 01:00:36;;;;;;;8.50;3.75;;;10.50;92.60;;;;;;5056793;28;20027;-38
2022/10/26 01:03:05;;;;;;;8.02;4.78;;;10.50;92.60;;;;;;5055147;28;20112;-40
2022/10/26 01:05:33;;;;;;;10.25;4.93;;;10.50;92.60;;;;;;5056814;28;20040;-38
2022/10/26 01:07:59;;;;;;;11.05;5.75;;;10.50;92.60;;;;;;5056387;28;20025;-38
2022/10/26 01:10:26;;;;;;;9.77;4.60;;;10.50;92.50;;;;;;5056359;28;20021;-39
2022/10/26 01:12:53;;;;;;;11.45;4.22;;;10.50;92.50;;;;;;5054969;28;20033;-38
2022/10/26 01:15:23;;;;;;;11.23;5.13;;;10.50;92.60;;;;;;5056551;28;20083;-38
2022/10/26 01:17:59;;;;;;;12.93;4.43;;;10.60;92.50;;;;;;5056614;28;20430;-38
2022/10/26 01:20:51;;;;;;;8.70;4.07;;;10.60;92.50;;;;;;5056155;28;20025;-38
2022/10/26 01:23:43;;;;;;;12.02;4.70;;;10.60;92.40;;;;;;5056082;28;20052;-38
2022/10/26 01:26:24;;;;;;;9.73;4.47;;;10.60;92.30;;;;;;5056424;28;20374;-38
2022/10/26 01:29:27;;;;;;;10.73;4.68;;;10.70;92.30;;;;;;5056151;28;20346;-38
2022/10/26 01:31:58;;;;;;;12.30;4.40;;;10.70;92.30;;;;;;5055200;28;20033;-39
2022/10/26 01:34:28;;;;;;;11.73;3.97;;;10.70;92.20;;;;;;5055933;28;20197;-39
2022/10/26 01:36:59;;;;;;;11.55;6.20;;;10.70;92.20;;;;;;5056022;28;20039;-39
2022/10/26 01:39:39;;;;;;;7.18;3.65;;;10.70;92.20;;;;;;5054541;28;20617;-39
2022/10/26 01:42:08;;;;;;;11.40;5.20;;;10.70;92.10;;;;;;5054881;28;20103;-39
2022/10/26 01:44:41;;;;;;;8.90;4.00;;;10.80;92.10;;;;;;5056267;28;20381;-39
2022/10/26 01:47:15;;;;;;;12.43;4.43;;;10.80;92.00;;;;;;5055917;28;20052;-38
2022/10/26 01:49:51;;;;;;;6.75;3.83;;;10.70;92.00;;;;;;5056582;28;20461;-38
2022/10/26 01:52:18;;;;;;;20.58;5.57;;;10.70;92.10;;;;;;5055923;28;20036;-38
2022/10/26 01:54:44;;;;;;;13.10;4.65;;;10.80;92.20;;;;;;5055753;28;20399;-40
2022/10/26 01:57:13;;;;;;;5.28;3.95;;;10.80;92.00;;;;;;5055441;28;20100;-38
2022/10/26 02:00:03;;;;;;;8.25;4.28;;;10.80;92.00;;;;;;5055572;28;20021;-38
2022/10/26 02:02:50;;;;;;;9.30;4.25;;;10.80;92.00;;;;;;5055758;28;20025;-38
2022/10/26 02:05:38;;;;;;;7.18;5.00;;;10.80;92.00;;;;;;5055606;28;20039;-39
2022/10/26 02:08:19;;;;;;;8.05;4.28;;;10.90;92.00;;;;;;5055437;28;20476;-38
2022/10/26 02:11:02;;;;;;;9.88;4.15;;;10.90;91.80;;;;;;5055428;28;20033;-38
2022/10/26 02:13:44;;;;;;;7.95;3.53;;;10.90;91.70;;;;;;5055436;28;20025;-37
2022/10/26 02:16:23;;;;;;;12.88;4.35;;;10.90;91.70;;;;;;5055475;28;20029;-38
2022/10/26 02:19:11;;;;;;;9.05;4.40;;;10.80;91.80;;;;;;5053791;28;20024;-38
2022/10/26 02:21:46;;;;;;;7.22;4.38;;;10.80;91.90;;;;;;5055099;28;20032;-38
2022/10/26 02:24:14;;;;;;;10.35;5.30;;;10.80;92.00;;;;;;5055335;28;20021;-40
2022/10/26 02:26:43;;;;;;;12.43;4.47;;;10.90;92.10;;;;;;5055264;28;20362;-38
2022/10/26 02:29:13;;;;;;;8.95;4.20;;;10.80;91.80;;;;;;5054911;28;20059;-38
2022/10/26 02:31:41;;;;;;;6.72;4.07;;;10.90;91.90;;;;;;5055410;28;20035;-38
2022/10/26 02:34:10;;;;;;;16.00;4.53;;;10.90;91.80;;;;;;5054494;28;20091;-38
2022/10/26 02:36:40;;;;;;;22.02;4.85;;;10.80;91.80;;;;;;5054999;28;20017;-39
2022/10/26 02:39:06;;;;;;;5.13;3.50;;;10.90;91.90;;;;;;5054714;28;20021;-38
2022/10/26 02:41:33;;;;;;;7.80;3.50;;;11.00;91.80;;;;;;5054774;28;20021;-38
2022/10/26 02:44:15;;;;;;;9.02;4.38;;;11.00;91.70;;;;;;5053569;28;20032;-38
2022/10/26 02:46:42;;;;;;;12.32;3.80;;;11.00;91.70;;;;;;5054658;28;20025;-38
2022/10/26 02:49:08;;;;;;;10.88;3.83;;;11.00;91.40;;;;;;5054767;28;20064;-38
2022/10/26 02:51:44;;;;;;;13.32;4.72;;;11.00;91.40;;;;;;5054907;28;20025;-38
2022/10/26 02:54:24;;;;;;;6.32;3.70;;;10.90;91.50;;;;;;5054489;28;20432;-38
2022/10/26 02:56:57;;;;;;;5.97;3.58;;;11.00;91.50;;;;;;5054730;28;20024;-38
2022/10/26 02:59:26;;;;;;;8.63;3.80;;;10.90;91.50;;;;;;5054312;28;20044;-37
2022/10/26 03:01:53;;;;;;;13.07;4.18;;;10.90;91.50;;;;;;5054219;28;20025;-38
2022/10/26 03:04:19;;;;;;;10.13;3.90;;;10.90;91.60;;;;;;5054220;28;20025;-38
2022/10/26 03:06:52;;;;;;;11.60;5.50;;;10.90;91.60;;;;;;5054160;28;20150;-38
2022/10/26 03:09:18;;;;;;;7.57;4.00;;;10.90;91.50;;;;;;5054778;28;20033;-38
2022/10/26 03:11:43;;;;;;;8.75;4.00;;;10.90;91.50;;;;;;5054380;28;20043;-38
2022/10/26 03:14:09;;;;;;;7.85;3.58;;;11.00;91.50;;;;;;5053016;28;20087;-38
2022/10/26 03:16:34;;;;;;;10.32;3.95;;;11.00;91.40;;;;;;5053989;28;20025;-38
2022/10/26 03:19:00;;;;;;;11.70;3.83;;;11.10;91.40;;;;;;5053118;28;20492;-38
2022/10/26 03:21:27;;;;;;;5.25;3.75;;;11.00;91.30;;;;;;5053872;28;20049;-38
2022/10/26 03:23:53;;;;;;;6.20;3.72;;;11.10;91.40;;;;;;5054151;28;20579;-39
2022/10/26 03:26:18;;;;;;;7.93;3.47;;;11.10;91.40;;;;;;5053859;28;20029;-38
2022/10/26 03:28:44;;;;;;;19.90;4.38;;;11.10;91.30;;;;;;5053694;28;20266;-38
2022/10/26 03:31:10;;;;;;;5.22;3.47;;;11.10;91.20;;;;;;5053714;28;20024;-39
2022/10/26 03:33:35;;;;;;;12.65;3.67;;;11.20;91.20;;;;;;5052158;28;20127;-39
2022/10/26 03:36:01;;;;;;;23.08;5.13;;;11.20;91.30;;;;;;5053704;28;20024;-38
2022/10/26 03:38:27;;;;;;;7.22;4.07;;;11.30;91.20;;;;;;5053583;28;20074;-42
2022/10/26 03:40:52;;;;;;;9.10;3.50;;;11.30;91.10;;;;;;5053768;28;20120;-38
2022/10/26 03:43:18;;;;;;;12.07;3.40;;;11.30;90.90;;;;;;5053724;28;20029;-38
2022/10/26 03:45:44;;;;;;;7.28;2.95;;;11.30;90.80;;;;;;5053629;28;20151;-38
2022/10/26 03:48:10;;;;;;;10.10;3.72;;;11.30;90.80;;;;;;5053496;28;20036;-38
2022/10/26 03:50:35;;;;;;;10.77;3.85;;;11.30;90.80;;;;;;5053495;28;20021;-39
2022/10/26 03:53:01;;;;;;;10.50;4.68;;;11.30;90.80;;;;;;5053317;28;20021;-38
2022/10/26 03:55:26;;;;;;;5.45;3.35;;;11.30;90.80;;;;;;5053389;28;20025;-38
2022/10/26 03:57:52;;;;;;;6.90;3.75;;;11.30;90.80;;;;;;5053631;28;20044;-38
2022/10/26 04:00:18;;;;;;;7.18;3.53;;;11.30;90.80;;;;;;5054503;28;20060;-41
2022/10/26 04:02:47;;;;;;;6.60;3.30;;;11.30;90.80;;;;;;5054962;28;20143;-39
2022/10/26 04:05:14;;;;;;;7.03;3.25;;;11.30;90.80;;;;;;5054928;28;20116;-40
2022/10/26 04:07:39;;;;;;;6.72;3.13;;;11.30;90.90;;;;;;5054759;28;20029;-40
2022/10/26 04:10:05;;;;;;;7.38;3.20;;;11.30;91.00;;;;;;5054084;28;20040;-48
2022/10/26 04:12:31;;;;;;;13.20;5.05;;;11.30;91.00;;;;;;5055092;28;20468;-39
2022/10/26 04:14:57;;;;;;;5.22;3.40;;;11.20;91.10;;;;;;5055310;28;20086;-39
2022/10/26 04:17:23;;;;;;;12.82;4.40;;;11.20;91.20;;;;;;5055337;28;20467;-39
2022/10/26 04:19:49;;;;;;;6.82;3.50;;;11.30;91.20;;;;;;5054401;28;20021;-39
2022/10/26 04:22:15;;;;;;;4.55;3.53;;;11.30;91.30;;;;;;5054025;28;20032;-39
2022/10/26 04:24:41;;;;;;;4.88;3.15;;;11.20;91.20;;;;;;5055808;28;20040;-39
2022/10/26 04:27:06;;;;;;;7.30;3.92;;;11.30;91.30;;;;;;5055202;28;20032;-39
2022/10/26 04:29:32;;;;;;;13.98;4.00;;;11.30;91.30;;;;;;5054271;28;20103;-63
2022/10/26 04:31:57;;;;;;;4.53;3.75;;;11.30;91.20;;;;;;5053415;28;20040;-38
2022/10/26 04:34:23;;;;;;;8.70;3.83;;;11.30;91.20;;;;;;5052748;28;20094;-39
2022/10/26 04:36:48;;;;;;;15.85;4.07;;;11.30;91.20;;;;;;5052998;28;20053;-38
2022/10/26 04:39:14;;;;;;;8.48;3.20;;;11.30;91.10;;;;;;5052803;28;20036;-38
2022/10/26 04:41:40;;;;;;;7.35;3.78;;;11.30;91.00;;;;;;5052833;28;20028;-40
2022/10/26 04:44:05;;;;;;;10.90;4.22;;;11.30;91.00;;;;;;5052730;28;20029;-38
2022/10/26 04:46:31;;;;;;;8.65;3.70;;;11.30;91.00;;;;;;5053117;28;20033;-40
2022/10/26 04:48:56;;;;;;;7.63;3.28;;;11.30;91.00;;;;;;5053040;28;20029;-37
2022/10/26 04:51:22;;;;;;;7.53;3.92;;;11.40;91.10;;;;;;5052733;28;20056;-39
2022/10/26 04:53:48;;;;;;;8.98;4.20;;;11.30;91.10;;;;;;5052524;28;20388;-39
2022/10/26 04:56:13;;;;;;;10.35;3.80;;;11.30;91.00;;;;;;5052864;28;20428;-39
2022/10/26 04:58:39;;;;;;;9.52;3.40;;;11.30;91.20;;;;;;5053171;28;20105;-37
2022/10/26 05:01:05;;;;;;;12.75;3.63;;;11.30;91.30;;;;;;5052633;28;20044;-38
2022/10/26 05:03:30;;;;;;;10.95;3.60;;;11.30;91.30;;;;;;5052673;28;20021;-38
2022/10/26 05:05:59;;;;;;;7.28;3.10;;;11.30;91.30;;;;;;5051070;28;20064;-38
2022/10/26 05:08:26;;;;;;;7.15;3.65;;;11.30;91.40;;;;;;5051048;28;20430;-38
2022/10/26 05:10:53;;;;;;;6.18;3.65;;;11.30;91.40;;;;;;5052292;28;20033;-39
2022/10/26 05:13:19;;;;;;;7.40;3.92;;;11.40;91.50;;;;;;5052399;28;20033;-40
2022/10/26 05:15:44;;;;;;;11.50;4.15;;;11.40;91.30;;;;;;5052491;28;20036;-38
2022/10/26 05:18:10;;;;;;;14.82;4.10;;;11.40;91.40;;;;;;5052885;28;20100;-39
2022/10/26 05:20:36;;;;;;;9.88;4.13;;;11.40;91.30;;;;;;5052497;28;20465;-39
2022/10/26 05:23:11;;;;;;;13.68;4.05;;;11.50;91.20;;;;;;5052352;28;20104;-39
2022/10/26 05:25:37;;;;;;;5.18;3.40;;;11.50;91.10;;;;;;5052625;28;20028;-39
2022/10/26 05:28:06;;;;;;;10.27;4.15;;;11.50;91.10;;;;;;5052654;28;20036;-38
2022/10/26 05:30:32;;;;;;;15.15;4.85;;;11.60;91.10;;;;;;5052446;28;20025;-39
2022/10/26 05:33:01;;;;;;;6.55;3.90;;;11.70;91.00;;;;;;5052259;28;20110;-38
2022/10/26 05:35:27;;;;;;;7.10;3.95;;;11.70;90.90;;;;;;5051941;28;20033;-38
2022/10/26 05:37:53;;;;;;;7.97;3.78;;;11.80;90.90;;;;;;5052155;28;20021;-38
2022/10/26 05:40:19;;;;;;;10.25;4.00;;;11.80;90.90;;;;;;5052167;28;20024;-39
2022/10/26 05:42:44;;;;;;;11.38;3.83;;;11.80;90.80;;;;;;5055121;28;20465;-38
2022/10/26 05:45:11;;;;;;;15.10;4.95;;;11.80;90.80;;;;;;5056178;28;20035;-39
2022/10/26 05:47:41;;;;;;;10.43;4.30;;;11.80;90.70;;;;;;5055872;28;20017;-41
2022/10/26 05:50:08;;;;;;;7.28;3.92;;;11.80;90.70;;;;;;5055755;28;20164;-38
2022/10/26 05:52:39;;;;;;;10.57;4.28;;;11.80;90.70;;;;;;5055815;28;20074;-38
2022/10/26 05:55:07;;;;;;;14.52;3.90;;;11.80;90.70;;;;;;5054528;28;20467;-38
2022/10/26 05:57:33;;;;;;;9.45;3.90;;;11.90;90.60;;;;;;5054478;28;20021;-38
2022/10/26 05:59:59;;;;;;;10.48;3.85;;;11.90;90.60;;;;;;5055716;28;20441;-38
2022/10/26 16:33:55;;;;;;;6.07;2.08;;;17.30;79.30;;;;;;5070991;28;20423;-48
2022/10/26 16:36:20;;;;;;;6.22;2.58;;;17.30;79.40;;;;;;5070875;28;20016;-50
2022/10/26 16:38:47;;;;;;;11.82;2.92;;;17.30;79.70;;;;;;5069231;28;20491;-52
2022/10/26 16:41:14;;;;;;;6.00;1.95;;;17.30;79.80;;;;;;5069887;28;20534;-49
2022/10/26 16:43:42;;;;;;;8.25;3.50;;;17.20;79.80;;;;;;5070070;28;20078;-50
2022/10/26 16:46:20;;;;;;;6.47;3.35;;;17.20;80.10;;;;;;5069942;28;20056;-49
2022/10/26 16:48:47;;;;;;;9.82;3.72;;;17.30;79.40;;;;;;5070168;28;20039;-47
2022/10/26 16:51:25;;;;;;;9.57;3.92;;;17.40;79.20;;;;;;5070049;28;20108;-51
2022/10/26 16:53:52;;;;;;;8.15;3.65;;;17.40;79.10;;;;;;5071331;28;20469;-48
2022/10/26 16:56:27;;;;;;;8.63;3.40;;;17.40;79.10;;;;;;5071658;28;20024;-50
2022/10/26 16:58:53;;;;;;;6.28;3.00;;;17.50;78.90;;;;;;5073595;28;20362;-48
2022/10/26 17:01:20;;;;;;;13.35;2.78;;;17.40;79.10;;;;;;5073866;28;20029;-39
2022/10/26 17:03:47;;;;;;;5.38;2.97;;;17.40;79.00;;;;;;5069558;28;20090;-50
2022/10/26 17:06:15;;;;;;;5.40;2.22;;;17.30;79.10;;;;;;5070863;28;20021;-49
2022/10/26 17:08:41;;;;;;;2.38;1.63;;;17.30;79.10;;;;;;5069603;28;20025;-50
2022/10/26 17:11:17;;;;;;;7.35;1.75;;;17.10;80.00;;;;;;5069679;28;20033;-50
2022/10/26 17:13:43;;;;;;;3.72;1.58;;;17.10;80.00;;;;;;5069377;28;20035;-49
2022/10/26 17:16:20;;;;;;;4.85;2.10;;;17.30;79.40;;;;;;5069287;28;20021;-49
2022/10/26 17:18:47;;;;;;;4.88;2.15;;;17.20;79.50;;;;;;5069403;28;20419;-52
2022/10/26 17:21:15;;;;;;;3.75;2.00;;;17.20;79.70;;;;;;5069534;28;20025;-48
2022/10/26 17:23:41;;;;;;;4.07;2.50;;;17.10;79.60;;;;;;5072546;28;20047;-49
2022/10/26 17:26:10;;;;;;;5.40;2.03;;;17.10;79.90;;;;;;5052197;28;20085;-49
2022/10/26 17:28:36;;;;;;;3.28;1.65;;;17.10;79.80;;;;;;5068968;28;20025;-48
2022/10/26 17:31:10;;;;;;;6.10;2.53;;;17.10;79.80;;;;;;5069893;28;20095;-50
2022/10/26 17:33:37;;;;;;;8.93;3.65;;;17.00;79.80;;;;;;5068703;28;20098;-48
2022/10/26 17:36:05;;;;;;;6.47;2.90;;;16.80;80.10;;;;;;5068895;28;20385;-50
2022/10/26 17:38:32;;;;;;;5.53;2.65;;;16.90;80.50;;;;;;5068988;28;20515;-49
2022/10/26 17:41:01;;;;;;;3.95;2.17;;;17.00;80.10;;;;;;5069191;28;20029;-49
2022/10/26 17:43:31;;;;;;;5.03;2.03;;;17.00;80.10;;;;;;5065369;28;20029;-49
2022/10/26 17:45:59;;;;;;;4.10;2.17;;;16.90;79.80;;;;;;5055359;28;20040;-50
2022/10/26 17:48:25;;;;;;;5.85;2.67;;;16.90;80.00;;;;;;5055657;28;20465;-51
2022/10/26 17:50:51;;;;;;;3.95;2.45;;;17.00;79.80;;;;;;5055578;28;20021;-51
2022/10/26 17:53:16;;;;;;;8.68;3.00;;;17.00;79.90;;;;;;5055447;28;20032;-48
2022/10/26 17:55:42;;;;;;;8.40;2.28;;;17.00;79.70;;;;;;5055910;28;20031;-48
2022/10/26 17:58:07;;;;;;;9.07;2.42;;;17.00;79.60;;;;;;5055200;28;20104;-48
2022/10/26 18:00:33;;;;;;;4.93;1.88;;;17.00;79.80;;;;;;5055903;28;20029;-51
2022/10/26 18:02:59;;;;;;;3.75;2.10;;;17.00;79.70;;;;;;5054067;28;20048;-50
2022/10/26 18:05:24;;;;;;;6.65;2.17;;;17.10;79.40;;;;;;5055370;28;20458;-53
2022/10/26 18:07:50;;;;;;;7.57;2.20;;;17.00;79.60;;;;;;5055124;28;20108;-49
2022/10/26 18:10:15;;;;;;;10.50;3.85;;;17.10;79.50;;;;;;5055793;28;20029;-49
2022/10/26 18:12:44;;;;;;;5.68;2.65;;;17.00;79.70;;;;;;5056176;28;20111;-48
2022/10/26 18:15:10;;;;;;;8.50;2.72;;;17.00;79.50;;;;;;5055634;28;20477;-50
2022/10/26 18:17:35;;;;;;;5.85;1.92;;;16.90;79.90;;;;;;5055537;28;20036;-49
2022/10/26 18:20:01;;;;;;;4.75;2.30;;;16.90;79.90;;;;;;5055690;28;20373;-51
2022/10/26 18:22:27;;;;;;;8.18;2.13;;;16.80;80.10;;;;;;5055930;28;20067;-48
2022/10/26 18:24:52;;;;;;;6.85;2.38;;;16.90;80.00;;;;;;5055914;28;20104;-49
2022/10/26 18:27:19;;;;;;;9.02;3.10;;;16.80;80.30;;;;;;5055480;28;20017;-51
2022/10/26 18:29:44;;;;;;;7.43;3.42;;;16.80;80.30;;;;;;5055476;28;20438;-52
2022/10/26 18:32:10;;;;;;;5.40;2.95;;;16.70;80.80;;;;;;5055359;28;20060;-49
2022/10/26 18:34:35;;;;;;;8.35;2.58;;;16.70;81.00;;;;;;5055742;28;20021;-50
2022/10/26 18:37:01;;;;;;;6.45;2.85;;;16.70;80.70;;;;;;5055047;28;20032;-49
2022/10/26 18:39:27;;;;;;;5.47;2.90;;;16.60;81.10;;;;;;5055465;28;20412;-51
2022/10/26 18:41:52;;;;;;;3.85;2.28;;;16.60;81.30;;;;;;5053434;28;20035;-50
2022/10/26 18:44:18;;;;;;;4.75;2.10;;;16.50;81.40;;;;;;5055550;28;20100;-50
2022/10/26 18:46:46;;;;;;;4.75;2.53;;;16.30;81.70;;;;;;5055147;28;20432;-49
2022/10/26 18:49:15;;;;;;;6.43;2.60;;;16.10;82.30;;;;;;5054517;28;20083;-49
2022/10/26 18:51:41;;;;;;;5.85;3.35;;;16.10;83.00;;;;;;5054482;28;20025;-49
2022/10/26 18:54:06;;;;;;;8.10;3.58;;;15.90;83.30;;;;;;5054483;28;20074;-48
2022/10/26 18:56:32;;;;;;;7.85;4.57;;;15.80;83.80;;;;;;5053388;28;20020;-51
2022/10/26 18:58:59;;;;;;;12.02;3.65;;;16.10;83.50;;;;;;5054316;28;20025;-48
2022/10/26 19:01:26;;;;;;;11.07;3.70;;;16.10;82.80;;;;;;5053713;28;20053;-50
2022/10/26 19:04:04;;;;;;;11.77;3.17;;;16.00;83.40;;;;;;5054640;28;20495;-49
2022/10/26 19:06:33;;;;;;;10.90;6.00;;;16.00;83.60;;;;;;5054401;28;20028;-50
2022/10/26 19:08:59;;;;;;;8.68;4.75;;;15.80;83.40;;;;;;5053324;28;20033;-51
2022/10/26 19:11:26;;;;;;;11.90;4.47;;;15.60;84.10;;;;;;5053262;28;20445;-49
2022/10/26 19:13:53;;;;;;;15.75;7.25;;;15.40;84.50;;;;;;5053148;28;20041;-50
2022/10/26 19:16:22;;;;;;;9.05;4.07;;;15.30;85.10;;;;;;5053399;28;20096;-48
2022/10/26 19:18:48;;;;;;;12.65;4.57;;;15.30;85.60;;;;;;5052989;28;20104;-48
2022/10/26 19:21:19;;;;;;;13.02;4.80;;;15.20;86.00;;;;;;5052635;28;20408;-49
2022/10/26 19:23:47;;;;;;;10.65;5.00;;;15.10;86.30;;;;;;5052547;28;20021;-48
2022/10/26 19:26:15;;;;;;;12.38;6.72;;;15.10;86.60;;;;;;5053757;28;20515;-48
2022/10/26 19:28:41;;;;;;;11.70;5.05;;;15.00;86.90;;;;;;5052124;28;20452;-48
2022/10/26 19:31:09;;;;;;;11.82;4.70;;;14.80;87.00;;;;;;5054686;28;20152;-49
2022/10/26 19:33:35;;;;;;;12.40;6.18;;;14.80;87.30;;;;;;5053760;28;20512;-50
2022/10/26 19:36:03;;;;;;;15.85;4.95;;;14.80;87.50;;;;;;5054040;28;20029;-51
2022/10/26 19:38:29;;;;;;;13.82;6.78;;;14.80;87.70;;;;;;5055240;28;20496;-51
2022/10/26 19:41:01;;;;;;;14.65;5.75;;;14.80;88.10;;;;;;5053857;28;20021;-48
2022/10/26 19:43:31;;;;;;;14.63;6.72;;;14.80;88.20;;;;;;5053927;28;20029;-49
2022/10/26 19:45:57;;;;;;;12.40;5.22;;;14.70;88.30;;;;;;5054234;28;20041;-50
2022/10/26 19:48:23;;;;;;;8.27;4.30;;;14.60;88.40;;;;;;5053487;28;20033;-40
2022/10/26 19:50:51;;;;;;;12.43;5.13;;;14.60;88.50;;;;;;5053316;28;20029;-38
2022/10/26 19:53:17;;;;;;;9.90;4.97;;;14.60;88.70;;;;;;5051707;28;20393;-38
2022/10/26 19:55:44;;;;;;;19.10;5.30;;;14.50;88.90;;;;;;5053183;28;20025;-39
2022/10/26 19:58:10;;;;;;;8.90;4.20;;;14.50;89.00;;;;;;5053116;28;20024;-39
2022/10/26 20:00:36;;;;;;;11.48;4.38;;;14.50;89.10;;;;;;5053230;28;20027;-40
2022/10/26 20:03:03;;;;;;;10.93;4.28;;;14.50;89.10;;;;;;5053312;28;20112;-39
2022/10/26 20:05:29;;;;;;;8.55;4.40;;;14.30;89.20;;;;;;5053277;28;20511;-39
2022/10/26 20:07:55;;;;;;;14.93;5.43;;;14.40;89.40;;;;;;5053133;28;20033;-38
2022/10/26 20:10:21;;;;;;;11.55;4.97;;;14.40;89.50;;;;;;5053059;28;20355;-38
2022/10/26 20:12:47;;;;;;;11.13;6.20;;;14.30;89.50;;;;;;5053106;28;20405;-39
2022/10/26 20:15:13;;;;;;;19.55;5.68;;;14.30;89.60;;;;;;5053030;28;20021;-39
2022/10/26 20:17:38;;;;;;;20.65;5.70;;;14.20;89.80;;;;;;5053757;28;20021;-39
2022/10/26 20:20:05;;;;;;;11.95;5.38;;;14.20;89.80;;;;;;5051675;28;20036;-39
2022/10/26 20:22:30;;;;;;;12.85;4.63;;;14.10;90.00;;;;;;5052897;28;20078;-39
2022/10/26 20:24:56;;;;;;;8.15;4.15;;;14.10;90.00;;;;;;5052702;28;20469;-40
2022/10/26 20:27:22;;;;;;;8.20;5.30;;;14.00;90.00;;;;;;5054039;28;20383;-39
2022/10/26 20:29:47;;;;;;;9.15;5.20;;;14.00;90.20;;;;;;5054283;28;20021;-39
2022/10/26 20:32:14;;;;;;;16.48;7.07;;;13.90;90.30;;;;;;5052969;28;20118;-38
2022/10/26 20:34:42;;;;;;;16.20;7.38;;;13.90;90.40;;;;;;5052781;28;20103;-39
2022/10/26 20:37:10;;;;;;;23.17;9.25;;;13.80;90.50;;;;;;5052993;28;20047;-41
2022/10/26 20:39:36;;;;;;;13.25;5.93;;;13.80;90.50;;;;;;5052586;28;20025;-40
2022/10/26 20:42:04;;;;;;;17.33;7.18;;;13.80;90.50;;;;;;5053013;28;20025;-47
2022/10/26 20:44:38;;;;;;;11.48;4.93;;;13.80;90.70;;;;;;5052986;28;20029;-39
2022/10/26 20:47:04;;;;;;;13.90;5.90;;;13.70;90.80;;;;;;5052945;28;20124;-39
2022/10/26 20:49:30;;;;;;;15.93;6.75;;;13.70;90.90;;;;;;5052608;28;20082;-39
2022/10/26 20:52:04;;;;;;;15.85;6.05;;;13.70;91.00;;;;;;5052732;28;20036;-40
2022/10/26 20:54:39;;;;;;;13.95;6.93;;;13.60;91.00;;;;;;5052829;28;20025;-39
2022/10/26 20:57:07;;;;;;;14.63;6.00;;;13.70;91.10;;;;;;5053079;28;20373;-38
2022/10/26 20:59:41;;;;;;;17.10;7.65;;;13.60;91.20;;;;;;5052559;28;20100;-39
2022/10/26 21:02:10;;;;;;;15.77;7.97;;;13.60;91.30;;;;;;5052469;28;20514;-39
2022/10/26 21:04:35;;;;;;;13.38;6.28;;;13.50;91.30;;;;;;5052791;28;20098;-40
2022/10/26 21:07:01;;;;;;;9.82;6.28;;;13.50;91.40;;;;;;5052623;28;20481;-39
2022/10/26 21:09:27;;;;;;;20.75;7.13;;;13.50;91.50;;;;;;5051123;28;20036;-40
2022/10/26 21:11:56;;;;;;;10.63;6.80;;;13.50;91.50;;;;;;5052337;28;20103;-40
2022/10/26 21:14:22;;;;;;;11.35;6.22;;;13.50;91.60;;;;;;5052362;28;20070;-38
2022/10/26 21:16:48;;;;;;;18.73;6.90;;;13.50;91.60;;;;;;5052381;28;20100;-40
2022/10/26 21:19:13;;;;;;;14.27;6.97;;;13.40;91.60;;;;;;5053742;28;20019;-41
2022/10/26 21:21:39;;;;;;;14.60;6.75;;;13.40;91.70;;;;;;5056148;28;20083;-39
2022/10/26 21:24:05;;;;;;;11.18;5.97;;;13.40;91.80;;;;;;5056417;28;20430;-39
2022/10/26 21:26:30;;;;;;;11.38;6.65;;;13.40;91.80;;;;;;5056099;28;20100;-39
2022/10/26 21:28:56;;;;;;;12.57;8.23;;;13.30;91.80;;;;;;5055895;28;20107;-39
2022/10/26 21:31:22;;;;;;;13.00;6.28;;;13.30;91.90;;;;;;5056067;28;20056;-39
2022/10/26 21:33:47;;;;;;;13.82;6.38;;;13.30;91.90;;;;;;5054296;28;20091;-39
2022/10/26 21:36:14;;;;;;;15.25;7.95;;;13.30;91.90;;;;;;5055861;28;20022;-39
2022/10/26 21:38:41;;;;;;;11.63;6.80;;;13.40;91.90;;;;;;5055568;28;20111;-38
2022/10/26 21:41:15;;;;;;;17.08;7.95;;;13.30;92.00;;;;;;5055970;28;20064;-39
2022/10/26 21:43:43;;;;;;;11.02;7.07;;;13.30;92.00;;;;;;5055690;28;20068;-38
2022/10/26 21:46:09;;;;;;;13.48;5.65;;;13.30;92.00;;;;;;5055752;28;20024;-39
2022/10/26 21:48:35;;;;;;;10.55;5.30;;;13.30;92.00;;;;;;5055444;28;20036;-40
2022/10/26 21:51:03;;;;;;;10.75;4.95;;;13.30;92.10;;;;;;5055594;28;20491;-39
2022/10/26 21:53:29;;;;;;;7.53;5.30;;;13.30;92.10;;;;;;5055292;28;20049;-42
2022/10/26 21:56:18;;;;;;;13.02;5.57;;;13.30;92.20;;;;;;5054105;28;20427;-40
2022/10/26 21:58:45;;;;;;;14.60;6.43;;;13.20;92.30;;;;;;5055499;28;20021;-40
2022/10/26 22:01:18;;;;;;;12.00;6.43;;;13.20;92.30;;;;;;5055366;28;20021;-38
2022/10/26 22:03:44;;;;;;;14.23;6.13;;;13.20;92.40;;;;;;5055502;28;20041;-39
2022/10/26 22:06:11;;;;;;;12.48;5.60;;;13.10;92.30;;;;;;5056061;28;20048;-38
2022/10/26 22:08:37;;;;;;;14.93;6.72;;;13.10;92.40;;;;;;5055816;28;20033;-38
2022/10/26 22:11:08;;;;;;;13.93;5.90;;;13.00;92.40;;;;;;5055106;28;20100;-39
2022/10/26 22:13:33;;;;;;;;;;;13.10;92.50;;;;;;5055721;28;20476;-38
2022/10/26 22:16:02;;;;;;;11.82;5.07;;;13.20;92.60;;;;;;5055082;28;19904;-40
2022/10/26 22:18:28;;;;;;;7.72;4.50;;;13.20;92.50;;;;;;5055226;28;20021;-38
2022/10/26 22:20:57;;;;;;;11.80;5.38;;;13.20;92.50;;;;;;5053634;28;20032;-38
2022/10/26 22:23:23;;;;;;;7.47;4.18;;;13.30;92.50;;;;;;5055045;28;20025;-40
2022/10/26 22:25:48;;;;;;;9.23;5.13;;;13.30;92.50;;;;;;5054951;28;20500;-38
2022/10/26 22:28:14;;;;;;;17.75;6.53;;;13.40;92.30;;;;;;5056112;28;20033;-51
2022/10/26 22:30:40;;;;;;;11.60;4.03;;;13.70;92.40;;;;;;5057097;28;20021;-50
2022/10/26 22:33:05;;;;;;;7.47;5.07;;;13.80;92.10;;;;;;5055820;28;20104;-49
2022/10/26 22:35:31;;;;;;;12.95;7.60;;;13.90;91.90;;;;;;5056544;28;20032;-50
2022/10/26 22:37:56;;;;;;;11.05;6.25;;;13.90;91.40;;;;;;5056577;28;20107;-53
2022/10/26 22:40:22;;;;;;;17.85;7.95;;;13.90;91.20;;;;;;5055628;28;20020;-48
2022/10/26 22:42:50;;;;;;;14.75;7.10;;;14.00;91.00;;;;;;5054557;28;20036;-49
2022/10/26 22:45:16;;;;;;;9.82;5.35;;;14.10;90.80;;;;;;5054476;28;20072;-49
2022/10/26 22:47:41;;;;;;;13.50;5.75;;;14.10;90.70;;;;;;5054736;28;20098;-49
2022/10/26 22:50:07;;;;;;;10.50;5.85;;;14.10;90.50;;;;;;5054943;28;20501;-52
2022/10/26 22:52:34;;;;;;;11.35;5.70;;;14.20;90.30;;;;;;5054512;28;20418;-49
2022/10/26 22:55:00;;;;;;;11.68;6.47;;;14.20;89.80;;;;;;5055073;28;20052;-50
2022/10/26 22:57:25;;;;;;;8.13;4.13;;;14.20;89.70;;;;;;5054226;28;20113;-50
2022/10/26 22:59:51;;;;;;;8.10;4.15;;;14.20;89.80;;;;;;5054256;28;20424;-50
2022/10/26 23:02:17;;;;;;;12.25;4.10;;;14.30;89.70;;;;;;5052810;28;20037;-48
2022/10/26 23:04:42;;;;;;;7.22;3.42;;;14.30;89.40;;;;;;5054188;28;20442;-54
2022/10/26 23:07:08;;;;;;;9.73;3.70;;;14.60;89.10;;;;;;5054239;28;20489;-48
2022/10/26 23:09:34;;;;;;;5.35;3.60;;;14.50;88.50;;;;;;5053995;28;20053;-48
2022/10/26 23:11:59;;;;;;;6.18;3.63;;;14.50;88.60;;;;;;5052620;28;20083;-50
2022/10/26 23:14:25;;;;;;;10.07;3.42;;;14.50;88.30;;;;;;5053913;28;20394;-52
2022/10/26 23:16:51;;;;;;;8.75;3.50;;;14.30;88.40;;;;;;5053814;28;20021;-48
2022/10/26 23:19:16;;;;;;;7.70;3.97;;;14.30;88.50;;;;;;5053777;28;20103;-49